sensor_id;sensor_type;location;lat;lon;timestamp;P1;durP1;ratioP1;P2;durP2;ratioP2
23317;SDS011;11831;55.918;37.746;2023-07-13T00:01:31;4.30;;;2.10;;
23317;SDS011;11831;55.918;37.746;2023-07-13T00:03:58;3.25;;;2.33;;
23317;SDS011;11831;55.918;37.746;2023-07-13T00:06:25;2.72;;;2.03;;
23317;SDS011;11831;55.918;37.746;2023-07-13T00:08:59;2.75;;;1.90;;
23317;SDS011;11831;55.918;37.746;2023-07-13T00:11:25;4.40;;;2.10;;
23317;SDS011;11831;55.918;37.746;2023-07-13T00:13:51;2.78;;;1.85;;
23317;SDS011;11831;55.918;37.746;2023-07-13T00:16:18;2.40;;;2.20;;
23317;SDS011;11831;55.918;37.746;2023-07-13T00:18:46;3.60;;;2.05;;
23317;SDS011;11831;55.918;37.746;2023-07-13T00:21:13;2.80;;;2.05;;
23317;SDS011;11831;55.918;37.746;2023-07-13T00:23:41;3.17;;;2.40;;
23317;SDS011;11831;55.918;37.746;2023-07-13T00:26:09;3.70;;;2.20;;
23317;SDS011;11831;55.918;37.746;2023-07-13T00:28:38;2.65;;;2.12;;
23317;SDS011;11831;55.918;37.746;2023-07-13T00:31:05;2.83;;;2.25;;
23317;SDS011;11831;55.918;37.746;2023-07-13T00:33:32;4.10;;;2.40;;
23317;SDS011;11831;55.918;37.746;2023-07-13T00:36:02;2.92;;;2.05;;
23317;SDS011;11831;55.918;37.746;2023-07-13T00:38:29;2.90;;;2.30;;
23317;SDS011;11831;55.918;37.746;2023-07-13T00:40:58;2.50;;;2.28;;
23317;SDS011;11831;55.918;37.746;2023-07-13T00:43:25;3.03;;;2.35;;
23317;SDS011;11831;55.918;37.746;2023-07-13T00:48:27;3.28;;;2.37;;
23317;SDS011;11831;55.918;37.746;2023-07-13T00:50:57;3.47;;;2.35;;
23317;SDS011;11831;55.918;37.746;2023-07-13T00:53:26;3.35;;;2.50;;
23317;SDS011;11831;55.918;37.746;2023-07-13T00:55:55;2.55;;;2.25;;
23317;SDS011;11831;55.918;37.746;2023-07-13T00:58:23;3.80;;;2.22;;
23317;SDS011;11831;55.918;37.746;2023-07-13T01:00:50;2.87;;;2.65;;
23317;SDS011;11831;55.918;37.746;2023-07-13T01:03:17;3.00;;;2.70;;
23317;SDS011;11831;55.918;37.746;2023-07-13T01:05:45;4.30;;;2.50;;
23317;SDS011;11831;55.918;37.746;2023-07-13T01:08:14;3.37;;;2.22;;
23317;SDS011;11831;55.918;37.746;2023-07-13T01:10:41;4.22;;;2.50;;
23317;SDS011;11831;55.918;37.746;2023-07-13T01:13:08;4.78;;;2.50;;
23317;SDS011;11831;55.918;37.746;2023-07-13T01:18:07;4.62;;;2.50;;
23317;SDS011;11831;55.918;37.746;2023-07-13T01:20:40;3.40;;;2.42;;
23317;SDS011;11831;55.918;37.746;2023-07-13T01:23:10;3.95;;;2.33;;
23317;SDS011;11831;55.918;37.746;2023-07-13T01:25:38;4.25;;;2.40;;
23317;SDS011;11831;55.918;37.746;2023-07-13T01:28:05;2.60;;;2.08;;
23317;SDS011;11831;55.918;37.746;2023-07-13T01:30:38;2.62;;;2.35;;
23317;SDS011;11831;55.918;37.746;2023-07-13T01:35:33;6.65;;;2.72;;
23317;SDS011;11831;55.918;37.746;2023-07-13T01:37:59;2.75;;;2.55;;
23317;SDS011;11831;55.918;37.746;2023-07-13T01:40:27;5.37;;;2.40;;
23317;SDS011;11831;55.918;37.746;2023-07-13T01:42:54;2.87;;;2.55;;
23317;SDS011;11831;55.918;37.746;2023-07-13T01:45:20;3.33;;;2.70;;
23317;SDS011;11831;55.918;37.746;2023-07-13T01:47:47;3.37;;;2.20;;
23317;SDS011;11831;55.918;37.746;2023-07-13T01:50:13;4.78;;;2.92;;
23317;SDS011;11831;55.918;37.746;2023-07-13T01:52:39;4.20;;;2.40;;
23317;SDS011;11831;55.918;37.746;2023-07-13T01:55:06;4.10;;;2.50;;
23317;SDS011;11831;55.918;37.746;2023-07-13T01:57:32;4.65;;;2.50;;
23317;SDS011;11831;55.918;37.746;2023-07-13T01:59:59;4.00;;;2.92;;
23317;SDS011;11831;55.918;37.746;2023-07-13T02:02:25;3.33;;;2.83;;
23317;SDS011;11831;55.918;37.746;2023-07-13T02:04:51;4.80;;;2.30;;
23317;SDS011;11831;55.918;37.746;2023-07-13T02:07:17;3.83;;;2.65;;
23317;SDS011;11831;55.918;37.746;2023-07-13T02:09:44;3.35;;;2.70;;
23317;SDS011;11831;55.918;37.746;2023-07-13T02:12:10;4.70;;;2.47;;
23317;SDS011;11831;55.918;37.746;2023-07-13T02:14:36;3.90;;;2.62;;
23317;SDS011;11831;55.918;37.746;2023-07-13T02:17:03;2.78;;;2.40;;
23317;SDS011;11831;55.918;37.746;2023-07-13T02:19:29;3.97;;;2.50;;
23317;SDS011;11831;55.918;37.746;2023-07-13T02:21:55;3.25;;;2.67;;
23317;SDS011;11831;55.918;37.746;2023-07-13T02:24:22;8.00;;;2.67;;
23317;SDS011;11831;55.918;37.746;2023-07-13T02:26:48;3.15;;;2.50;;
23317;SDS011;11831;55.918;37.746;2023-07-13T02:29:14;2.47;;;2.28;;
23317;SDS011;11831;55.918;37.746;2023-07-13T02:31:41;3.58;;;2.50;;
23317;SDS011;11831;55.918;37.746;2023-07-13T02:34:07;5.00;;;2.80;;
23317;SDS011;11831;55.918;37.746;2023-07-13T02:36:33;2.53;;;2.33;;
23317;SDS011;11831;55.918;37.746;2023-07-13T02:39:00;3.28;;;2.58;;
23317;SDS011;11831;55.918;37.746;2023-07-13T02:41:28;2.80;;;2.50;;
23317;SDS011;11831;55.918;37.746;2023-07-13T02:43:54;3.78;;;2.33;;
23317;SDS011;11831;55.918;37.746;2023-07-13T02:46:29;5.50;;;2.87;;
23317;SDS011;11831;55.918;37.746;2023-07-13T02:48:56;4.22;;;2.30;;
23317;SDS011;11831;55.918;37.746;2023-07-13T02:51:22;3.25;;;2.47;;
23317;SDS011;11831;55.918;37.746;2023-07-13T02:53:48;3.25;;;2.70;;
23317;SDS011;11831;55.918;37.746;2023-07-13T02:56:14;5.05;;;2.90;;
23317;SDS011;11831;55.918;37.746;2023-07-13T02:58:41;4.22;;;2.80;;
23317;SDS011;11831;55.918;37.746;2023-07-13T03:01:08;7.22;;;2.90;;
23317;SDS011;11831;55.918;37.746;2023-07-13T03:03:37;5.90;;;2.75;;
23317;SDS011;11831;55.918;37.746;2023-07-13T03:06:04;4.90;;;2.70;;
23317;SDS011;11831;55.918;37.746;2023-07-13T03:08:33;3.35;;;2.40;;
23317;SDS011;11831;55.918;37.746;2023-07-13T03:11:00;7.03;;;3.00;;
23317;SDS011;11831;55.918;37.746;2023-07-13T03:13:28;6.37;;;2.97;;
23317;SDS011;11831;55.918;37.746;2023-07-13T03:15:55;6.10;;;2.95;;
23317;SDS011;11831;55.918;37.746;2023-07-13T03:18:21;7.05;;;3.22;;
23317;SDS011;11831;55.918;37.746;2023-07-13T03:20:50;4.97;;;2.80;;
23317;SDS011;11831;55.918;37.746;2023-07-13T03:23:17;3.53;;;2.60;;
23317;SDS011;11831;55.918;37.746;2023-07-13T03:25:43;4.10;;;2.60;;
23317;SDS011;11831;55.918;37.746;2023-07-13T03:28:13;3.72;;;2.72;;
23317;SDS011;11831;55.918;37.746;2023-07-13T03:30:40;5.00;;;2.80;;
23317;SDS011;11831;55.918;37.746;2023-07-13T03:33:07;3.45;;;2.72;;
23317;SDS011;11831;55.918;37.746;2023-07-13T03:35:34;3.33;;;2.97;;
23317;SDS011;11831;55.918;37.746;2023-07-13T03:38:01;4.47;;;2.65;;
23317;SDS011;11831;55.918;37.746;2023-07-13T03:40:27;3.08;;;2.67;;
23317;SDS011;11831;55.918;37.746;2023-07-13T03:42:54;13.98;;;3.05;;
23317;SDS011;11831;55.918;37.746;2023-07-13T03:45:20;3.53;;;2.87;;
23317;SDS011;11831;55.918;37.746;2023-07-13T03:47:46;5.68;;;3.28;;
23317;SDS011;11831;55.918;37.746;2023-07-13T03:50:12;4.20;;;2.87;;
23317;SDS011;11831;55.918;37.746;2023-07-13T03:52:39;4.40;;;2.72;;
23317;SDS011;11831;55.918;37.746;2023-07-13T03:55:05;5.50;;;2.80;;
23317;SDS011;11831;55.918;37.746;2023-07-13T03:57:32;3.72;;;2.53;;
23317;SDS011;11831;55.918;37.746;2023-07-13T03:59:59;8.15;;;2.83;;
23317;SDS011;11831;55.918;37.746;2023-07-13T04:02:25;7.03;;;2.83;;
23317;SDS011;11831;55.918;37.746;2023-07-13T04:04:52;5.43;;;2.50;;
23317;SDS011;11831;55.918;37.746;2023-07-13T04:07:19;4.70;;;2.75;;
23317;SDS011;11831;55.918;37.746;2023-07-13T04:09:45;5.78;;;2.83;;
23317;SDS011;11831;55.918;37.746;2023-07-13T04:12:11;4.75;;;2.95;;
23317;SDS011;11831;55.918;37.746;2023-07-13T04:14:37;3.00;;;2.70;;
23317;SDS011;11831;55.918;37.746;2023-07-13T04:17:04;5.05;;;3.05;;
23317;SDS011;11831;55.918;37.746;2023-07-13T04:19:30;6.57;;;2.80;;
23317;SDS011;11831;55.918;37.746;2023-07-13T04:21:57;4.28;;;2.83;;
23317;SDS011;11831;55.918;37.746;2023-07-13T04:24:23;3.28;;;2.50;;
23317;SDS011;11831;55.918;37.746;2023-07-13T04:26:49;4.28;;;2.95;;
23317;SDS011;11831;55.918;37.746;2023-07-13T04:29:15;6.12;;;3.08;;
23317;SDS011;11831;55.918;37.746;2023-07-13T04:31:42;4.22;;;2.87;;
23317;SDS011;11831;55.918;37.746;2023-07-13T04:34:08;7.90;;;3.10;;
23317;SDS011;11831;55.918;37.746;2023-07-13T04:36:34;5.68;;;3.03;;
23317;SDS011;11831;55.918;37.746;2023-07-13T04:39:03;3.55;;;2.62;;
23317;SDS011;11831;55.918;37.746;2023-07-13T04:41:29;3.12;;;2.83;;
23317;SDS011;11831;55.918;37.746;2023-07-13T04:43:55;4.95;;;2.70;;
23317;SDS011;11831;55.918;37.746;2023-07-13T04:46:21;3.95;;;2.62;;
23317;SDS011;11831;55.918;37.746;2023-07-13T04:48:48;4.55;;;2.95;;
23317;SDS011;11831;55.918;37.746;2023-07-13T04:51:19;4.62;;;2.87;;
23317;SDS011;11831;55.918;37.746;2023-07-13T04:53:45;4.80;;;2.75;;
23317;SDS011;11831;55.918;37.746;2023-07-13T04:56:11;3.25;;;2.65;;
23317;SDS011;11831;55.918;37.746;2023-07-13T04:58:37;3.80;;;2.92;;
23317;SDS011;11831;55.918;37.746;2023-07-13T05:01:04;5.45;;;2.72;;
23317;SDS011;11831;55.918;37.746;2023-07-13T05:03:31;7.45;;;2.65;;
23317;SDS011;11831;55.918;37.746;2023-07-13T05:06:00;6.10;;;2.70;;
23317;SDS011;11831;55.918;37.746;2023-07-13T05:08:28;6.32;;;3.00;;
23317;SDS011;11831;55.918;37.746;2023-07-13T05:10:55;4.50;;;2.70;;
23317;SDS011;11831;55.918;37.746;2023-07-13T05:13:21;5.30;;;2.85;;
23317;SDS011;11831;55.918;37.746;2023-07-13T05:15:55;6.05;;;2.87;;
23317;SDS011;11831;55.918;37.746;2023-07-13T05:18:23;4.72;;;2.80;;
23317;SDS011;11831;55.918;37.746;2023-07-13T05:20:59;5.28;;;2.87;;
23317;SDS011;11831;55.918;37.746;2023-07-13T05:23:27;6.22;;;3.00;;
23317;SDS011;11831;55.918;37.746;2023-07-13T05:25:55;4.25;;;2.55;;
23317;SDS011;11831;55.918;37.746;2023-07-13T05:28:22;7.20;;;3.15;;
23317;SDS011;11831;55.918;37.746;2023-07-13T05:30:49;5.78;;;2.85;;
23317;SDS011;11831;55.918;37.746;2023-07-13T05:33:16;4.28;;;2.75;;
23317;SDS011;11831;55.918;37.746;2023-07-13T05:35:43;5.93;;;2.95;;
23317;SDS011;11831;55.918;37.746;2023-07-13T05:38:09;4.95;;;2.67;;
23317;SDS011;11831;55.918;37.746;2023-07-13T05:40:35;4.72;;;3.30;;
23317;SDS011;11831;55.918;37.746;2023-07-13T05:43:02;6.93;;;2.97;;
23317;SDS011;11831;55.918;37.746;2023-07-13T05:45:29;3.12;;;2.60;;
23317;SDS011;11831;55.918;37.746;2023-07-13T05:47:55;3.25;;;2.75;;
23317;SDS011;11831;55.918;37.746;2023-07-13T05:50:21;8.88;;;3.37;;
23317;SDS011;11831;55.918;37.746;2023-07-13T05:52:47;5.00;;;2.70;;
23317;SDS011;11831;55.918;37.746;2023-07-13T05:55:14;4.28;;;3.25;;
23317;SDS011;11831;55.918;37.746;2023-07-13T05:57:40;5.87;;;3.40;;
23317;SDS011;11831;55.918;37.746;2023-07-13T06:00:06;5.80;;;2.85;;
23317;SDS011;11831;55.918;37.746;2023-07-13T06:02:37;5.75;;;3.15;;
23317;SDS011;11831;55.918;37.746;2023-07-13T06:05:04;4.50;;;2.60;;
23317;SDS011;11831;55.918;37.746;2023-07-13T06:07:30;6.53;;;3.22;;
23317;SDS011;11831;55.918;37.746;2023-07-13T06:09:57;6.90;;;2.60;;
23317;SDS011;11831;55.918;37.746;2023-07-13T06:12:25;3.15;;;2.45;;
23317;SDS011;11831;55.918;37.746;2023-07-13T06:14:51;5.10;;;2.67;;
23317;SDS011;11831;55.918;37.746;2023-07-13T06:17:18;3.12;;;2.67;;
23317;SDS011;11831;55.918;37.746;2023-07-13T06:19:44;5.37;;;2.80;;
23317;SDS011;11831;55.918;37.746;2023-07-13T06:22:10;4.43;;;3.00;;
23317;SDS011;11831;55.918;37.746;2023-07-13T06:24:36;7.12;;;3.05;;
23317;SDS011;11831;55.918;37.746;2023-07-13T06:27:03;6.97;;;3.05;;
23317;SDS011;11831;55.918;37.746;2023-07-13T06:29:29;7.72;;;2.80;;
23317;SDS011;11831;55.918;37.746;2023-07-13T06:31:56;4.95;;;2.75;;
23317;SDS011;11831;55.918;37.746;2023-07-13T06:34:22;5.32;;;2.90;;
23317;SDS011;11831;55.918;37.746;2023-07-13T06:36:48;4.00;;;2.87;;
23317;SDS011;11831;55.918;37.746;2023-07-13T06:39:14;4.93;;;2.80;;
23317;SDS011;11831;55.918;37.746;2023-07-13T06:41:41;6.82;;;2.90;;
23317;SDS011;11831;55.918;37.746;2023-07-13T06:44:07;3.50;;;2.22;;
23317;SDS011;11831;55.918;37.746;2023-07-13T06:46:33;5.87;;;2.53;;
23317;SDS011;11831;55.918;37.746;2023-07-13T06:48:59;6.30;;;3.17;;
23317;SDS011;11831;55.918;37.746;2023-07-13T06:51:26;5.22;;;2.80;;
23317;SDS011;11831;55.918;37.746;2023-07-13T06:53:52;5.00;;;2.60;;
23317;SDS011;11831;55.918;37.746;2023-07-13T06:56:18;5.32;;;2.40;;
23317;SDS011;11831;55.918;37.746;2023-07-13T06:58:44;4.97;;;2.67;;
23317;SDS011;11831;55.918;37.746;2023-07-13T07:01:11;3.30;;;2.70;;
23317;SDS011;11831;55.918;37.746;2023-07-13T07:03:37;7.07;;;2.60;;
23317;SDS011;11831;55.918;37.746;2023-07-13T07:06:12;4.28;;;2.70;;
23317;SDS011;11831;55.918;37.746;2023-07-13T07:08:40;6.05;;;2.97;;
23317;SDS011;11831;55.918;37.746;2023-07-13T07:11:14;5.57;;;2.60;;
23317;SDS011;11831;55.918;37.746;2023-07-13T07:13:42;4.12;;;2.78;;
23317;SDS011;11831;55.918;37.746;2023-07-13T07:16:08;2.85;;;2.05;;
23317;SDS011;11831;55.918;37.746;2023-07-13T07:18:35;3.95;;;2.28;;
23317;SDS011;11831;55.918;37.746;2023-07-13T07:21:01;4.57;;;2.53;;
23317;SDS011;11831;55.918;37.746;2023-07-13T07:23:28;3.85;;;2.45;;
23317;SDS011;11831;55.918;37.746;2023-07-13T07:25:54;4.93;;;2.30;;
23317;SDS011;11831;55.918;37.746;2023-07-13T07:28:20;2.95;;;2.55;;
23317;SDS011;11831;55.918;37.746;2023-07-13T07:30:47;3.87;;;2.33;;
23317;SDS011;11831;55.918;37.746;2023-07-13T07:33:14;11.80;;;2.90;;
23317;SDS011;11831;55.918;37.746;2023-07-13T07:35:42;5.70;;;3.45;;
23317;SDS011;11831;55.918;37.746;2023-07-13T07:38:09;5.68;;;2.90;;
23317;SDS011;11831;55.918;37.746;2023-07-13T07:40:38;3.83;;;2.67;;
23317;SDS011;11831;55.918;37.746;2023-07-13T07:43:09;4.07;;;2.83;;
23317;SDS011;11831;55.918;37.746;2023-07-13T07:45:37;3.50;;;2.67;;
23317;SDS011;11831;55.918;37.746;2023-07-13T07:48:04;4.78;;;3.00;;
23317;SDS011;11831;55.918;37.746;2023-07-13T07:50:32;6.25;;;3.05;;
23317;SDS011;11831;55.918;37.746;2023-07-13T07:52:59;4.15;;;2.87;;
23317;SDS011;11831;55.918;37.746;2023-07-13T07:55:25;5.37;;;2.75;;
23317;SDS011;11831;55.918;37.746;2023-07-13T07:57:55;5.28;;;2.92;;
23317;SDS011;11831;55.918;37.746;2023-07-13T08:00:22;5.37;;;3.35;;
23317;SDS011;11831;55.918;37.746;2023-07-13T08:02:48;5.85;;;3.60;;
23317;SDS011;11831;55.918;37.746;2023-07-13T08:05:15;5.03;;;2.85;;
23317;SDS011;11831;55.918;37.746;2023-07-13T08:07:41;7.37;;;3.00;;
23317;SDS011;11831;55.918;37.746;2023-07-13T08:10:07;4.50;;;2.60;;
23317;SDS011;11831;55.918;37.746;2023-07-13T08:12:38;5.53;;;3.67;;
23317;SDS011;11831;55.918;37.746;2023-07-13T08:15:06;4.90;;;2.70;;
23317;SDS011;11831;55.918;37.746;2023-07-13T08:17:35;7.03;;;3.20;;
23317;SDS011;11831;55.918;37.746;2023-07-13T08:20:02;5.45;;;2.87;;
23317;SDS011;11831;55.918;37.746;2023-07-13T08:22:30;7.18;;;3.62;;
23317;SDS011;11831;55.918;37.746;2023-07-13T08:24:56;8.05;;;3.75;;
23317;SDS011;11831;55.918;37.746;2023-07-13T08:27:23;5.95;;;3.65;;
23317;SDS011;11831;55.918;37.746;2023-07-13T08:29:50;8.80;;;3.37;;
23317;SDS011;11831;55.918;37.746;2023-07-13T08:32:18;5.18;;;3.72;;
23317;SDS011;11831;55.918;37.746;2023-07-13T08:34:45;5.93;;;3.33;;
23317;SDS011;11831;55.918;37.746;2023-07-13T08:37:12;7.35;;;3.08;;
23317;SDS011;11831;55.918;37.746;2023-07-13T08:39:38;5.35;;;3.05;;
23317;SDS011;11831;55.918;37.746;2023-07-13T08:42:05;8.23;;;3.70;;
23317;SDS011;11831;55.918;37.746;2023-07-13T08:47:14;7.72;;;3.60;;
23317;SDS011;11831;55.918;37.746;2023-07-13T08:49:42;6.35;;;3.87;;
23317;SDS011;11831;55.918;37.746;2023-07-13T08:52:12;5.78;;;3.70;;
23317;SDS011;11831;55.918;37.746;2023-07-13T08:54:59;4.40;;;3.30;;
23317;SDS011;11831;55.918;37.746;2023-07-13T08:57:32;5.93;;;3.92;;
23317;SDS011;11831;55.918;37.746;2023-07-13T09:00:00;6.65;;;3.97;;
23317;SDS011;11831;55.918;37.746;2023-07-13T09:11:05;5.63;;;3.63;;
23317;SDS011;11831;55.918;37.746;2023-07-13T09:13:43;7.00;;;3.58;;
23317;SDS011;11831;55.918;37.746;2023-07-13T09:16:16;4.35;;;3.12;;
23317;SDS011;11831;55.918;37.746;2023-07-13T09:18:43;4.43;;;2.62;;
23317;SDS011;11831;55.918;37.746;2023-07-13T09:23:42;4.78;;;2.97;;
23317;SDS011;11831;55.918;37.746;2023-07-13T09:26:19;4.87;;;2.60;;
23317;SDS011;11831;55.918;37.746;2023-07-13T09:28:48;4.30;;;2.50;;
23317;SDS011;11831;55.918;37.746;2023-07-13T09:31:20;4.57;;;2.67;;
23317;SDS011;11831;55.918;37.746;2023-07-13T09:33:52;4.70;;;2.67;;
23317;SDS011;11831;55.918;37.746;2023-07-13T09:36:20;4.00;;;2.55;;
23317;SDS011;11831;55.918;37.746;2023-07-13T09:41:50;4.45;;;2.60;;
23317;SDS011;11831;55.918;37.746;2023-07-13T09:44:30;5.00;;;2.42;;
23317;SDS011;11831;55.918;37.746;2023-07-13T09:47:01;4.18;;;2.62;;
23317;SDS011;11831;55.918;37.746;2023-07-13T09:49:37;2.97;;;2.45;;
23317;SDS011;11831;55.918;37.746;2023-07-13T09:52:05;4.35;;;2.70;;
23317;SDS011;11831;55.918;37.746;2023-07-13T09:54:36;4.82;;;2.58;;
23317;SDS011;11831;55.918;37.746;2023-07-13T09:57:08;6.20;;;2.83;;
23317;SDS011;11831;55.918;37.746;2023-07-13T09:59:48;4.55;;;2.60;;
23317;SDS011;11831;55.918;37.746;2023-07-13T10:04:53;5.45;;;3.28;;
23317;SDS011;11831;55.918;37.746;2023-07-13T10:07:24;6.45;;;3.28;;
23317;SDS011;11831;55.918;37.746;2023-07-13T10:09:54;5.80;;;3.65;;
23317;SDS011;11831;55.918;37.746;2023-07-13T10:12:21;5.25;;;3.58;;
23317;SDS011;11831;55.918;37.746;2023-07-13T10:14:52;6.25;;;3.87;;
23317;SDS011;11831;55.918;37.746;2023-07-13T10:17:25;5.25;;;3.50;;
23317;SDS011;11831;55.918;37.746;2023-07-13T10:19:59;5.62;;;3.45;;
23317;SDS011;11831;55.918;37.746;2023-07-13T10:22:37;4.60;;;3.87;;
23317;SDS011;11831;55.918;37.746;2023-07-13T10:25:13;6.93;;;4.07;;
23317;SDS011;11831;55.918;37.746;2023-07-13T10:27:42;5.18;;;3.83;;
23317;SDS011;11831;55.918;37.746;2023-07-13T10:32:41;6.70;;;4.03;;
23317;SDS011;11831;55.918;37.746;2023-07-13T10:35:09;7.68;;;4.47;;
23317;SDS011;11831;55.918;37.746;2023-07-13T10:37:55;6.07;;;4.22;;
23317;SDS011;11831;55.918;37.746;2023-07-13T10:40:42;7.82;;;4.00;;
23317;SDS011;11831;55.918;37.746;2023-07-13T10:43:18;5.53;;;4.05;;
23317;SDS011;11831;55.918;37.746;2023-07-13T10:45:47;7.05;;;4.45;;
23317;SDS011;11831;55.918;37.746;2023-07-13T10:48:15;7.62;;;3.67;;
23317;SDS011;11831;55.918;37.746;2023-07-13T10:50:44;6.18;;;3.95;;
23317;SDS011;11831;55.918;37.746;2023-07-13T10:53:20;5.95;;;3.60;;
23317;SDS011;11831;55.918;37.746;2023-07-13T11:03:27;6.65;;;3.85;;
23317;SDS011;11831;55.918;37.746;2023-07-13T11:06:07;4.43;;;3.17;;
23317;SDS011;11831;55.918;37.746;2023-07-13T11:08:51;4.00;;;3.30;;
23317;SDS011;11831;55.918;37.746;2023-07-13T11:13:59;5.75;;;3.35;;
23317;SDS011;11831;55.918;37.746;2023-07-13T11:16:43;6.15;;;3.58;;
23317;SDS011;11831;55.918;37.746;2023-07-13T11:27:40;7.97;;;3.65;;
23317;SDS011;11831;55.918;37.746;2023-07-13T11:30:14;3.65;;;3.08;;
23317;SDS011;11831;55.918;37.746;2023-07-13T11:33:01;4.32;;;3.20;;
23317;SDS011;11831;55.918;37.746;2023-07-13T11:35:58;5.05;;;3.20;;
23317;SDS011;11831;55.918;37.746;2023-07-13T11:40:58;5.25;;;2.78;;
23317;SDS011;11831;55.918;37.746;2023-07-13T11:43:30;4.57;;;3.08;;
23317;SDS011;11831;55.918;37.746;2023-07-13T11:45:56;8.15;;;3.12;;
23317;SDS011;11831;55.918;37.746;2023-07-13T11:48:28;4.10;;;2.95;;
23317;SDS011;11831;55.918;37.746;2023-07-13T11:50:58;4.57;;;2.78;;
23317;SDS011;11831;55.918;37.746;2023-07-13T11:53:29;4.15;;;3.00;;
23317;SDS011;11831;55.918;37.746;2023-07-13T11:56:03;7.18;;;3.85;;
23317;SDS011;11831;55.918;37.746;2023-07-13T11:58:32;6.82;;;3.70;;
23317;SDS011;11831;55.918;37.746;2023-07-13T12:00:59;4.62;;;3.45;;
23317;SDS011;11831;55.918;37.746;2023-07-13T12:03:30;4.87;;;3.03;;
23317;SDS011;11831;55.918;37.746;2023-07-13T12:06:04;5.47;;;3.10;;
23317;SDS011;11831;55.918;37.746;2023-07-13T12:08:46;7.45;;;3.83;;
23317;SDS011;11831;55.918;37.746;2023-07-13T12:11:15;4.40;;;3.60;;
23317;SDS011;11831;55.918;37.746;2023-07-13T12:13:43;7.53;;;4.20;;
23317;SDS011;11831;55.918;37.746;2023-07-13T12:16:12;6.95;;;4.50;;
23317;SDS011;11831;55.918;37.746;2023-07-13T12:18:42;5.85;;;4.72;;
23317;SDS011;11831;55.918;37.746;2023-07-13T12:21:16;7.12;;;4.28;;
23317;SDS011;11831;55.918;37.746;2023-07-13T12:23:44;10.93;;;4.93;;
23317;SDS011;11831;55.918;37.746;2023-07-13T12:26:13;10.80;;;4.62;;
23317;SDS011;11831;55.918;37.746;2023-07-13T12:28:53;7.37;;;4.00;;
23317;SDS011;11831;55.918;37.746;2023-07-13T12:31:24;7.07;;;3.58;;
23317;SDS011;11831;55.918;37.746;2023-07-13T12:34:07;7.25;;;4.05;;
23317;SDS011;11831;55.918;37.746;2023-07-13T12:36:38;5.65;;;3.90;;
23317;SDS011;11831;55.918;37.746;2023-07-13T12:39:15;4.95;;;4.00;;
23317;SDS011;11831;55.918;37.746;2023-07-13T12:41:44;9.10;;;3.75;;
23317;SDS011;11831;55.918;37.746;2023-07-13T12:44:11;5.68;;;3.78;;
23317;SDS011;11831;55.918;37.746;2023-07-13T12:46:50;6.22;;;4.22;;
23317;SDS011;11831;55.918;37.746;2023-07-13T12:49:21;6.93;;;4.60;;
23317;SDS011;11831;55.918;37.746;2023-07-13T12:51:50;7.30;;;5.00;;
23317;SDS011;11831;55.918;37.746;2023-07-13T12:54:18;10.55;;;5.78;;
23317;SDS011;11831;55.918;37.746;2023-07-13T12:56:45;7.85;;;5.22;;
23317;SDS011;11831;55.918;37.746;2023-07-13T12:59:19;14.13;;;6.05;;
23317;SDS011;11831;55.918;37.746;2023-07-13T13:01:48;8.90;;;5.30;;
23317;SDS011;11831;55.918;37.746;2023-07-13T13:04:15;7.65;;;5.45;;
23317;SDS011;11831;55.918;37.746;2023-07-13T13:06:42;7.05;;;5.25;;
23317;SDS011;11831;55.918;37.746;2023-07-13T13:09:12;7.82;;;6.32;;
23317;SDS011;11831;55.918;37.746;2023-07-13T13:11:40;7.45;;;5.68;;
23317;SDS011;11831;55.918;37.746;2023-07-13T13:14:07;7.32;;;4.30;;
23317;SDS011;11831;55.918;37.746;2023-07-13T13:16:37;5.87;;;4.50;;
23317;SDS011;11831;55.918;37.746;2023-07-13T13:19:33;9.57;;;5.03;;
23317;SDS011;11831;55.918;37.746;2023-07-13T13:22:00;7.05;;;5.28;;
23317;SDS011;11831;55.918;37.746;2023-07-13T13:24:27;6.72;;;4.45;;
23317;SDS011;11831;55.918;37.746;2023-07-13T13:26:54;5.70;;;4.20;;
23317;SDS011;11831;55.918;37.746;2023-07-13T13:29:23;5.90;;;3.87;;
23317;SDS011;11831;55.918;37.746;2023-07-13T13:31:50;5.87;;;4.22;;
23317;SDS011;11831;55.918;37.746;2023-07-13T13:34:18;5.22;;;3.65;;
23317;SDS011;11831;55.918;37.746;2023-07-13T13:36:46;9.57;;;4.22;;
23317;SDS011;11831;55.918;37.746;2023-07-13T13:39:47;4.85;;;4.03;;
23317;SDS011;11831;55.918;37.746;2023-07-13T13:42:05;6.37;;;4.20;;
23317;SDS011;11831;55.918;37.746;2023-07-13T13:44:34;7.10;;;4.53;;
23317;SDS011;11831;55.918;37.746;2023-07-13T13:47:01;6.97;;;3.70;;
23317;SDS011;11831;55.918;37.746;2023-07-13T13:49:29;6.45;;;4.43;;
23317;SDS011;11831;55.918;37.746;2023-07-13T13:51:56;7.03;;;4.72;;
23317;SDS011;11831;55.918;37.746;2023-07-13T13:54:23;7.43;;;5.03;;
23317;SDS011;11831;55.918;37.746;2023-07-13T13:56:51;6.93;;;4.32;;
23317;SDS011;11831;55.918;37.746;2023-07-13T13:59:19;7.82;;;4.20;;
23317;SDS011;11831;55.918;37.746;2023-07-13T14:01:46;6.35;;;4.90;;
23317;SDS011;11831;55.918;37.746;2023-07-13T14:04:15;11.05;;;4.93;;
23317;SDS011;11831;55.918;37.746;2023-07-13T14:06:43;6.43;;;4.20;;
23317;SDS011;11831;55.918;37.746;2023-07-13T14:09:11;6.18;;;4.47;;
23317;SDS011;11831;55.918;37.746;2023-07-13T14:11:39;6.65;;;4.60;;
23317;SDS011;11831;55.918;37.746;2023-07-13T14:14:09;5.28;;;4.40;;
23317;SDS011;11831;55.918;37.746;2023-07-13T14:16:40;8.93;;;4.30;;
23317;SDS011;11831;55.918;37.746;2023-07-13T14:19:10;4.30;;;3.45;;
23317;SDS011;11831;55.918;37.746;2023-07-13T14:21:38;5.80;;;3.95;;
23317;SDS011;11831;55.918;37.746;2023-07-13T14:24:04;7.85;;;4.45;;
23317;SDS011;11831;55.918;37.746;2023-07-13T14:26:32;7.20;;;4.53;;
23317;SDS011;11831;55.918;37.746;2023-07-13T14:29:05;5.53;;;3.47;;
23317;SDS011;11831;55.918;37.746;2023-07-13T14:31:39;7.00;;;3.72;;
23317;SDS011;11831;55.918;37.746;2023-07-13T14:34:05;8.25;;;4.32;;
23317;SDS011;11831;55.918;37.746;2023-07-13T14:39:21;5.47;;;3.53;;
23317;SDS011;11831;55.918;37.746;2023-07-13T14:41:53;7.07;;;4.30;;
23317;SDS011;11831;55.918;37.746;2023-07-13T14:44:21;5.97;;;3.83;;
23317;SDS011;11831;55.918;37.746;2023-07-13T14:46:51;5.90;;;3.58;;
23317;SDS011;11831;55.918;37.746;2023-07-13T14:49:24;4.45;;;3.90;;
23317;SDS011;11831;55.918;37.746;2023-07-13T14:51:59;6.07;;;3.72;;
23317;SDS011;11831;55.918;37.746;2023-07-13T14:54:27;5.70;;;3.70;;
23317;SDS011;11831;55.918;37.746;2023-07-13T14:56:54;5.78;;;3.33;;
23317;SDS011;11831;55.918;37.746;2023-07-13T14:59:20;5.32;;;3.58;;
23317;SDS011;11831;55.918;37.746;2023-07-13T15:01:47;5.87;;;3.50;;
23317;SDS011;11831;55.918;37.746;2023-07-13T15:04:15;8.60;;;6.15;;
23317;SDS011;11831;55.918;37.746;2023-07-13T15:06:59;6.57;;;4.40;;
23317;SDS011;11831;55.918;37.746;2023-07-13T15:09:28;4.95;;;3.45;;
23317;SDS011;11831;55.918;37.746;2023-07-13T15:11:57;8.55;;;5.57;;
23317;SDS011;11831;55.918;37.746;2023-07-13T15:14:25;5.82;;;3.95;;
23317;SDS011;11831;55.918;37.746;2023-07-13T15:16:52;4.65;;;3.87;;
23317;SDS011;11831;55.918;37.746;2023-07-13T15:19:20;7.15;;;4.10;;
23317;SDS011;11831;55.918;37.746;2023-07-13T15:21:47;7.78;;;3.75;;
23317;SDS011;11831;55.918;37.746;2023-07-13T15:24:14;4.20;;;3.80;;
23317;SDS011;11831;55.918;37.746;2023-07-13T15:26:41;6.05;;;4.05;;
23317;SDS011;11831;55.918;37.746;2023-07-13T15:29:12;6.53;;;4.10;;
23317;SDS011;11831;55.918;37.746;2023-07-13T15:31:38;5.53;;;3.92;;
23317;SDS011;11831;55.918;37.746;2023-07-13T15:34:12;5.90;;;4.25;;
23317;SDS011;11831;55.918;37.746;2023-07-13T15:36:44;6.15;;;4.25;;